Weather at Beverly Regional Airport

Public forecast

Using degrees Fahrenheit for public forecast. Weather courtesy of forecast.io.

Current aviation weather report (METAR) for Beverly Regional Airport

Retrieved 2020/11/27 21:53 UTC (1 hour ago):

KBVY 272153Z 00000KT 10SM OVC060 11/08 A2997 RMK AO2 SLP145 T01110083

Closest aviation forecast (TAF) to Beverly Regional Airport

Closest forecast is General Edward Lawrence Logan International Airport, 13.8 nm (25.5 km) SSW. Retrieved 2020/11/27 18:39 UTC (4 hours ago):

TAF KBOS 271730Z 2718/2824 29006KT P6SM BKN060 FM280000 30007KT P6SM BKN050 FM281800 29010KT P6SM SCT040